sensor_id;sensor_type;location;lat;lon;timestamp;P1;durP1;ratioP1;P2;durP2;ratioP2
12373;SDS011;6251;51.762;8.660;2022-09-09T00:08:25;1.25;;;1.15;;
12373;SDS011;6251;51.762;8.660;2022-09-09T00:29:10;1.10;;;1.10;;
12373;SDS011;6251;51.762;8.660;2022-09-09T00:39:57;0.95;;;0.95;;
12373;SDS011;6251;51.762;8.660;2022-09-09T00:49:50;1.20;;;1.20;;
12373;SDS011;6251;51.762;8.660;2022-09-09T01:10:21;1.33;;;1.23;;
12373;SDS011;6251;51.762;8.660;2022-09-09T01:30:55;2.08;;;1.40;;
12373;SDS011;6251;51.762;8.660;2022-09-09T01:40:57;3.75;;;1.30;;
12373;SDS011;6251;51.762;8.660;2022-09-09T01:50:58;2.72;;;1.25;;
12373;SDS011;6251;51.762;8.660;2022-09-09T02:01:02;1.67;;;1.30;;
12373;SDS011;6251;51.762;8.660;2022-09-09T02:11:17;1.30;;;1.30;;
12373;SDS011;6251;51.762;8.660;2022-09-09T02:21:19;1.62;;;1.40;;
12373;SDS011;6251;51.762;8.660;2022-09-09T02:31:20;1.50;;;1.30;;
12373;SDS011;6251;51.762;8.660;2022-09-09T02:41:24;1.20;;;1.20;;
12373;SDS011;6251;51.762;8.660;2022-09-09T03:01:31;1.30;;;1.30;;
12373;SDS011;6251;51.762;8.660;2022-09-09T03:11:32;1.42;;;1.33;;
12373;SDS011;6251;51.762;8.660;2022-09-09T03:21:33;1.58;;;1.20;;
12373;SDS011;6251;51.762;8.660;2022-09-09T03:31:34;1.27;;;1.27;;
12373;SDS011;6251;51.762;8.660;2022-09-09T03:41:35;3.08;;;1.65;;
12373;SDS011;6251;51.762;8.660;2022-09-09T03:51:37;1.23;;;1.23;;
12373;SDS011;6251;51.762;8.660;2022-09-09T04:01:38;1.50;;;1.40;;
12373;SDS011;6251;51.762;8.660;2022-09-09T04:11:40;2.03;;;1.23;;
12373;SDS011;6251;51.762;8.660;2022-09-09T04:21:41;1.65;;;1.50;;
12373;SDS011;6251;51.762;8.660;2022-09-09T04:31:42;1.20;;;1.20;;
12373;SDS011;6251;51.762;8.660;2022-09-09T04:41:42;2.50;;;1.40;;
12373;SDS011;6251;51.762;8.660;2022-09-09T04:51:43;2.15;;;1.55;;
12373;SDS011;6251;51.762;8.660;2022-09-09T05:01:43;1.70;;;1.60;;
12373;SDS011;6251;51.762;8.660;2022-09-09T05:11:44;1.35;;;1.23;;
12373;SDS011;6251;51.762;8.660;2022-09-09T05:21:45;1.50;;;1.40;;
12373;SDS011;6251;51.762;8.660;2022-09-09T05:31:46;1.40;;;1.30;;
12373;SDS011;6251;51.762;8.660;2022-09-09T05:41:47;2.08;;;1.42;;
12373;SDS011;6251;51.762;8.660;2022-09-09T05:51:47;1.17;;;1.15;;
12373;SDS011;6251;51.762;8.660;2022-09-09T06:01:48;2.13;;;1.80;;
12373;SDS011;6251;51.762;8.660;2022-09-09T06:11:48;3.17;;;1.77;;
12373;SDS011;6251;51.762;8.660;2022-09-09T06:31:59;1.85;;;1.60;;
12373;SDS011;6251;51.762;8.660;2022-09-09T06:52:45;2.65;;;1.52;;
12373;SDS011;6251;51.762;8.660;2022-09-09T07:02:47;2.47;;;1.52;;
12373;SDS011;6251;51.762;8.660;2022-09-09T07:12:51;3.53;;;1.70;;
12373;SDS011;6251;51.762;8.660;2022-09-09T07:22:55;2.65;;;1.50;;
12373;SDS011;6251;51.762;8.660;2022-09-09T07:32:56;2.67;;;1.75;;
12373;SDS011;6251;51.762;8.660;2022-09-09T07:42:57;2.22;;;1.60;;
12373;SDS011;6251;51.762;8.660;2022-09-09T07:52:57;1.80;;;1.50;;
12373;SDS011;6251;51.762;8.660;2022-09-09T08:02:58;1.95;;;1.37;;
12373;SDS011;6251;51.762;8.660;2022-09-09T08:13:01;1.60;;;1.48;;
12373;SDS011;6251;51.762;8.660;2022-09-09T08:23:02;0.80;;;0.77;;
12373;SDS011;6251;51.762;8.660;2022-09-09T08:33:03;1.85;;;0.90;;
12373;SDS011;6251;51.762;8.660;2022-09-09T08:43:03;1.10;;;0.82;;
12373;SDS011;6251;51.762;8.660;2022-09-09T09:13:47;1.10;;;1.00;;
12373;SDS011;6251;51.762;8.660;2022-09-09T09:23:58;2.03;;;1.08;;
12373;SDS011;6251;51.762;8.660;2022-09-09T09:34:00;1.25;;;1.15;;
12373;SDS011;6251;51.762;8.660;2022-09-09T09:44:01;1.20;;;1.10;;
12373;SDS011;6251;51.762;8.660;2022-09-09T09:54:04;2.60;;;1.10;;
12373;SDS011;6251;51.762;8.660;2022-09-09T10:04:20;1.50;;;1.05;;
12373;SDS011;6251;51.762;8.660;2022-09-09T10:15:11;1.00;;;0.80;;
12373;SDS011;6251;51.762;8.660;2022-09-09T10:35:52;2.15;;;1.08;;
12373;SDS011;6251;51.762;8.660;2022-09-09T10:56:17;1.65;;;0.85;;
12373;SDS011;6251;51.762;8.660;2022-09-09T11:06:21;1.20;;;1.10;;
12373;SDS011;6251;51.762;8.660;2022-09-09T11:16:28;1.52;;;1.08;;
12373;SDS011;6251;51.762;8.660;2022-09-09T11:26:41;1.10;;;0.88;;
12373;SDS011;6251;51.762;8.660;2022-09-09T11:37:06;1.77;;;1.00;;
12373;SDS011;6251;51.762;8.660;2022-09-09T11:57:22;1.77;;;1.10;;
12373;SDS011;6251;51.762;8.660;2022-09-09T12:07:36;1.40;;;0.80;;
12373;SDS011;6251;51.762;8.660;2022-09-09T12:17:54;2.10;;;1.17;;
12373;SDS011;6251;51.762;8.660;2022-09-09T12:48:44;1.23;;;0.85;;
12373;SDS011;6251;51.762;8.660;2022-09-09T12:58:46;2.55;;;1.00;;
12373;SDS011;6251;51.762;8.660;2022-09-09T13:08:50;1.98;;;0.93;;
12373;SDS011;6251;51.762;8.660;2022-09-09T13:18:51;1.40;;;1.00;;
12373;SDS011;6251;51.762;8.660;2022-09-09T13:28:53;1.15;;;1.05;;
12373;SDS011;6251;51.762;8.660;2022-09-09T13:38:55;0.60;;;0.60;;
12373;SDS011;6251;51.762;8.660;2022-09-09T13:48:57;1.00;;;1.00;;
12373;SDS011;6251;51.762;8.660;2022-09-09T13:58:59;0.50;;;0.50;;
12373;SDS011;6251;51.762;8.660;2022-09-09T14:08:59;0.73;;;0.73;;
12373;SDS011;6251;51.762;8.660;2022-09-09T14:19:00;1.37;;;0.80;;
12373;SDS011;6251;51.762;8.660;2022-09-09T14:29:01;1.05;;;0.82;;
12373;SDS011;6251;51.762;8.660;2022-09-09T14:39:01;1.67;;;0.80;;
12373;SDS011;6251;51.762;8.660;2022-09-09T14:49:02;0.70;;;0.70;;
12373;SDS011;6251;51.762;8.660;2022-09-09T14:59:03;0.55;;;0.55;;
12373;SDS011;6251;51.762;8.660;2022-09-09T15:09:04;1.37;;;0.90;;
12373;SDS011;6251;51.762;8.660;2022-09-09T15:19:05;0.70;;;0.70;;
12373;SDS011;6251;51.762;8.660;2022-09-09T15:29:06;1.35;;;0.77;;
12373;SDS011;6251;51.762;8.660;2022-09-09T15:39:09;0.90;;;0.90;;
12373;SDS011;6251;51.762;8.660;2022-09-09T15:49:16;1.08;;;0.80;;
12373;SDS011;6251;51.762;8.660;2022-09-09T15:59:23;0.80;;;0.80;;
12373;SDS011;6251;51.762;8.660;2022-09-09T16:09:25;2.90;;;0.93;;
12373;SDS011;6251;51.762;8.660;2022-09-09T16:19:27;2.05;;;1.20;;
12373;SDS011;6251;51.762;8.660;2022-09-09T16:29:28;1.57;;;0.83;;
12373;SDS011;6251;51.762;8.660;2022-09-09T16:39:29;0.77;;;0.77;;
12373;SDS011;6251;51.762;8.660;2022-09-09T16:49:29;0.77;;;0.75;;
12373;SDS011;6251;51.762;8.660;2022-09-09T16:59:30;1.77;;;1.00;;
12373;SDS011;6251;51.762;8.660;2022-09-09T17:09:31;1.73;;;1.17;;
12373;SDS011;6251;51.762;8.660;2022-09-09T17:19:32;1.42;;;0.93;;
12373;SDS011;6251;51.762;8.660;2022-09-09T17:29:33;0.90;;;0.90;;
12373;SDS011;6251;51.762;8.660;2022-09-09T17:39:35;1.30;;;0.90;;
12373;SDS011;6251;51.762;8.660;2022-09-09T17:49:41;1.93;;;1.27;;
12373;SDS011;6251;51.762;8.660;2022-09-09T17:59:42;1.67;;;1.00;;
12373;SDS011;6251;51.762;8.660;2022-09-09T18:09:43;1.10;;;1.00;;
12373;SDS011;6251;51.762;8.660;2022-09-09T18:19:43;1.25;;;1.05;;
12373;SDS011;6251;51.762;8.660;2022-09-09T18:29:44;2.83;;;1.25;;
12373;SDS011;6251;51.762;8.660;2022-09-09T18:39:44;1.40;;;1.00;;
12373;SDS011;6251;51.762;8.660;2022-09-09T18:49:46;0.82;;;0.82;;
12373;SDS011;6251;51.762;8.660;2022-09-09T18:59:47;0.95;;;0.95;;
12373;SDS011;6251;51.762;8.660;2022-09-09T19:09:48;1.00;;;1.00;;
12373;SDS011;6251;51.762;8.660;2022-09-09T19:19:48;1.87;;;1.20;;
12373;SDS011;6251;51.762;8.660;2022-09-09T19:29:50;1.23;;;1.20;;
12373;SDS011;6251;51.762;8.660;2022-09-09T19:39:50;1.10;;;1.10;;
12373;SDS011;6251;51.762;8.660;2022-09-09T19:49:51;0.93;;;0.93;;
12373;SDS011;6251;51.762;8.660;2022-09-09T19:59:52;0.90;;;0.90;;
12373;SDS011;6251;51.762;8.660;2022-09-09T20:09:52;2.12;;;1.10;;
12373;SDS011;6251;51.762;8.660;2022-09-09T20:19:53;1.48;;;0.80;;
12373;SDS011;6251;51.762;8.660;2022-09-09T20:29:54;0.85;;;0.85;;
12373;SDS011;6251;51.762;8.660;2022-09-09T20:39:54;0.70;;;0.70;;
12373;SDS011;6251;51.762;8.660;2022-09-09T20:49:55;1.73;;;0.70;;
12373;SDS011;6251;51.762;8.660;2022-09-09T20:59:56;0.68;;;0.68;;
12373;SDS011;6251;51.762;8.660;2022-09-09T21:09:56;0.80;;;0.80;;
